Time;durP1;ratioP1;P1;durP2;ratioP2;P2;SDS_P1;SDS_P2;PMS_P1;PMS_P2;Temp;Humidity;BMP_temperature;BMP_pressure;BME280_temperature;BME280_humidity;BME280_pressure;Samples;Min_cycle;Max_cycle;Signal;HPM_P1;HPM_P2
2023/07/25 00:01:45;;;;;;;9.25;4.40;;;;;;;15.34;100.00;99967.44;5115344;28;20718;-85
2023/07/25 00:04:12;;;;;;;8.95;4.32;;;;;;;15.38;100.00;99963.41;5110300;28;20075;-84
2023/07/25 00:06:39;;;;;;;9.70;4.53;;;;;;;15.39;100.00;99972.13;5119406;28;20107;-85
2023/07/25 00:09:06;;;;;;;10.00;4.60;;;;;;;15.40;100.00;99971.09;5121640;28;20499;-84
2023/07/25 00:11:33;;;;;;;8.93;4.40;;;;;;;15.46;100.00;99965.84;5112815;28;20388;-84
2023/07/25 00:14:00;;;;;;;10.55;4.18;;;;;;;15.46;100.00;99965.84;5109796;28;20086;-84
2023/07/25 00:16:26;;;;;;;11.10;4.50;;;;;;;15.47;100.00;99972.72;5109038;28;20087;-84
2023/07/25 00:53:24;;;;;;;11.45;5.75;;;;;;;15.20;100.00;99960.53;5093725;28;20517;-78
2023/07/25 00:55:52;;;;;;;11.95;5.47;;;;;;;15.27;100.00;99971.91;5080425;28;20150;-76
2023/07/25 00:58:20;;;;;;;13.23;5.32;;;;;;;15.25;100.00;99961.56;5094403;28;20366;-78
2023/07/25 01:00:46;;;;;;;14.98;5.30;;;;;;;15.30;100.00;99955.69;5080707;28;20055;-79
2023/07/25 01:03:14;;;;;;;11.05;5.82;;;;;;;15.27;100.00;99956.09;5091841;28;20132;-79
2023/07/25 01:05:45;;;;;;;14.50;5.80;;;;;;;15.28;100.00;99957.72;5092446;28;20111;-79
2023/07/25 01:08:11;;;;;;;13.05;5.35;;;;;;;15.21;100.00;99957.72;5092254;28;20048;-80
2023/07/25 01:10:39;;;;;;;14.27;5.53;;;;;;;15.24;100.00;99948.59;5091847;28;20134;-80
2023/07/25 01:13:07;;;;;;;13.57;5.22;;;;;;;15.22;100.00;99940.06;5094687;28;20055;-80
2023/07/25 01:15:35;;;;;;;10.48;5.35;;;;;;;15.21;100.00;99946.34;5095397;28;20135;-79
2023/07/25 01:18:02;;;;;;;14.10;5.35;;;;;;;15.22;100.00;99940.06;5084777;28;20098;-80
2023/07/25 01:20:29;;;;;;;14.55;5.38;;;;;;;15.20;100.00;99945.53;5094924;28;20051;-81
2023/07/25 01:22:57;;;;;;;14.38;5.53;;;;;;;15.21;100.00;99939.25;5096489;28;20127;-81
2023/07/25 01:25:26;;;;;;;7.07;5.00;;;;;;;15.15;100.00;99924.25;5088691;28;20450;-79
2023/07/25 01:27:52;;;;;;;11.07;5.10;;;;;;;15.17;100.00;99932.78;5087682;28;20131;-79
2023/07/25 01:30:19;;;;;;;8.65;5.05;;;;;;;15.13;100.00;99925.47;5094970;28;20078;-80
2023/07/25 01:32:46;;;;;;;10.70;5.30;;;;;;;15.07;100.00;99921.03;5094739;28;20135;-79
2023/07/25 01:35:12;;;;;;;7.88;5.30;;;;;;;15.04;100.00;99916.16;5096647;28;20131;-79
2023/07/25 01:37:39;;;;;;;9.55;5.10;;;;;;;14.97;100.00;99920.63;5101039;28;20080;-81
2023/07/25 01:40:07;;;;;;;9.23;5.50;;;;;;;14.91;100.00;99907.25;5090982;28;20075;-80
2023/07/25 01:42:35;;;;;;;10.10;5.38;;;;;;;14.88;100.00;99923.44;5091280;28;20127;-81
2023/07/25 01:45:01;;;;;;;11.05;5.10;;;;;;;14.87;100.00;99921.81;5093731;28;20048;-82
2023/07/25 01:47:28;;;;;;;10.05;5.60;;;;;;;14.79;100.00;99914.09;5095858;28;20120;-83
2023/07/25 01:49:55;;;;;;;16.60;5.47;;;;;;;14.81;100.00;99921.81;5096535;28;20139;-81
2023/07/25 01:52:21;;;;;;;9.95;4.90;;;;;;;14.79;100.00;99924.66;5095415;28;20055;-78
2023/07/25 01:54:49;;;;;;;9.55;5.07;;;;;;;14.80;100.00;99923.63;5095309;28;20134;-77
2023/07/25 01:57:17;;;;;;;7.05;5.38;;;;;;;14.73;100.00;99914.09;5089643;28;20497;-79
2023/07/25 01:59:45;;;;;;;8.52;5.00;;;;;;;14.74;100.00;99908.63;5092268;28;20052;-80
2023/07/25 02:02:11;;;;;;;14.02;5.72;;;;;;;14.72;100.00;99910.66;5086418;28;20040;-80
2023/07/25 02:04:38;;;;;;;10.55;5.28;;;;;;;14.66;100.00;99903.53;5096596;28;20055;-79
2023/07/25 02:07:05;;;;;;;9.18;5.25;;;;;;;14.61;100.00;99903.38;5088819;28;20470;-78
2023/07/25 02:09:32;;;;;;;7.88;5.47;;;;;;;14.53;100.00;99906.19;5085601;28;20083;-77
2023/07/25 02:11:59;;;;;;;9.88;4.95;;;;;;;14.47;100.00;99891.19;5087717;28;20075;-79
2023/07/25 02:14:26;;;;;;;14.18;5.65;;;;;;;14.41;100.00;99895.41;5095632;28;20054;-79
2023/07/25 02:16:54;;;;;;;7.10;5.22;;;;;;;14.34;100.00;99888.47;5096100;28;20139;-78
2023/07/25 02:19:20;;;;;;;8.77;5.55;;;;;;;14.29;100.00;99889.88;5097589;28;20131;-79
2023/07/25 02:21:47;;;;;;;9.02;4.85;;;;;;;14.25;100.00;99888.66;5093514;28;20091;-78
2023/07/25 02:24:13;;;;;;;10.30;5.70;;;;;;;14.21;100.00;99892.69;5095495;28;20051;-79
2023/07/25 02:26:40;;;;;;;11.02;5.32;;;;;;;14.22;100.00;99910.09;5093911;28;20494;-79
2023/07/25 02:29:06;;;;;;;10.48;5.90;;;;;;;14.13;100.00;99906.03;5094248;28;20131;-80
2023/07/25 02:31:33;;;;;;;10.13;5.82;;;;;;;14.22;100.00;99914.53;5086059;28;20152;-80
2023/07/25 02:34:02;;;;;;;9.73;5.63;;;;;;;14.27;100.00;99907.69;5094098;28;20079;-80
2023/07/25 02:36:28;;;;;;;10.48;5.53;;;;;;;14.32;100.00;99904.47;5102429;28;20087;-78
2023/07/25 02:38:55;;;;;;;12.90;5.93;;;;;;;14.41;100.00;99903.31;5092255;28;20136;-78
2023/07/25 02:41:21;;;;;;;10.85;5.82;;;;;;;14.41;100.00;99903.31;5091701;28;20044;-79
2023/07/25 02:43:48;;;;;;;11.68;6.07;;;;;;;14.43;100.00;99909.19;5092422;28;20052;-81
2023/07/25 02:46:15;;;;;;;12.38;5.53;;;;;;;14.45;100.00;99907.16;5087940;28;20135;-78
2023/07/25 02:48:41;;;;;;;11.48;6.07;;;;;;;14.47;100.00;99902.50;5091621;28;20524;-79
2023/07/25 02:51:09;;;;;;;12.48;5.75;;;;;;;14.50;100.00;99906.56;5093060;28;20071;-81
2023/07/25 02:53:36;;;;;;;14.18;6.07;;;;;;;14.55;100.00;99909.41;5092360;28;20083;-80
2023/07/25 02:56:02;;;;;;;10.10;5.43;;;;;;;14.59;100.00;99910.66;5097402;28;20131;-79
2023/07/25 02:58:29;;;;;;;8.00;5.57;;;;;;;14.55;100.00;99912.06;5096386;28;20111;-82
2023/07/25 03:00:56;;;;;;;12.82;6.30;;;;;;;14.50;100.00;99906.56;5088795;28;20112;-80
2023/07/25 03:03:22;;;;;;;12.75;5.90;;;;;;;14.49;100.00;99915.47;5088700;28;20131;-79
2023/07/25 03:05:49;;;;;;;13.90;6.10;;;;;;;14.51;100.00;99913.47;5092589;28;20059;-82
2023/07/25 03:08:17;;;;;;;10.25;5.80;;;;;;;14.50;100.00;99919.72;5095896;28;20048;-81
2023/07/25 03:10:43;;;;;;;9.20;4.68;;;;;;;14.50;100.00;99917.09;5094334;28;20101;-80
2023/07/25 03:13:10;;;;;;;7.38;5.72;;;;;;;14.47;100.00;99909.59;5093420;28;20048;-79
2023/07/25 03:15:37;;;;;;;8.43;5.28;;;;;;;14.57;100.00;99915.31;5083775;28;20125;-79
2023/07/25 03:18:04;;;;;;;13.40;5.40;;;;;;;14.56;100.00;99911.84;5081481;28;20056;-78
2023/07/25 03:20:31;;;;;;;9.43;5.38;;;;;;;14.59;100.00;99918.53;5083951;28;20074;-81
2023/07/25 03:22:59;;;;;;;10.40;5.55;;;;;;;14.58;100.00;99915.09;5086222;28;20056;-80
2023/07/25 03:25:27;;;;;;;11.27;6.20;;;;;;;14.52;100.00;99920.34;5092218;28;20055;-81
2023/07/25 03:27:53;;;;;;;12.20;5.90;;;;;;;14.54;100.00;99907.78;5096530;28;20135;-79
2023/07/25 03:30:20;;;;;;;10.82;6.00;;;;;;;14.58;100.00;99909.03;5086173;28;20073;-80
2023/07/25 03:32:47;;;;;;;10.43;5.53;;;;;;;14.60;100.00;99907.00;5093160;28;20141;-78
2023/07/25 03:35:13;;;;;;;12.75;6.13;;;;;;;14.56;100.00;99908.41;5091788;28;20083;-80
2023/07/25 03:37:40;;;;;;;11.02;5.68;;;;;;;14.54;100.00;99902.53;5094511;28;20510;-79
2023/07/25 03:40:07;;;;;;;11.75;5.40;;;;;;;14.54;100.00;99902.53;5090969;28;20126;-80
2023/07/25 03:42:35;;;;;;;13.73;6.20;;;;;;;14.49;100.00;99894.41;5097160;28;20127;-79
2023/07/25 03:45:02;;;;;;;9.90;5.35;;;;;;;14.46;100.00;99889.56;5088160;28;20158;-79
2023/07/25 03:47:29;;;;;;;11.23;5.68;;;;;;;14.37;100.00;99888.06;5085342;28;20093;-81
2023/07/25 03:49:58;;;;;;;14.05;5.35;;;;;;;14.34;100.00;99891.09;5090739;28;20048;-79
2023/07/25 03:52:25;;;;;;;15.10;6.18;;;;;;;14.32;100.00;99895.75;5091497;28;20305;-79
2023/07/25 03:54:51;;;;;;;10.10;5.90;;;;;;;14.20;100.00;99898.94;5093896;28;20048;-80
2023/07/25 03:57:18;;;;;;;12.25;5.93;;;;;;;14.14;100.00;99891.88;5091308;28;20345;-81
2023/07/25 03:59:46;;;;;;;12.98;5.72;;;;;;;14.07;100.00;99884.94;5091023;28;20559;-79
2023/07/25 04:02:13;;;;;;;12.23;6.00;;;;;;;14.00;100.00;99887.56;5076119;28;20102;-81
2023/07/25 04:04:40;;;;;;;9.93;6.38;;;;;;;13.90;100.00;99895.81;5073461;28;20469;-79
2023/07/25 04:07:09;;;;;;;14.13;5.78;;;;;;;13.85;100.00;99895.56;5070790;28;20105;-81
2023/07/25 04:09:36;;;;;;;12.25;6.10;;;;;;;13.90;100.00;99887.09;5004953;28;20552;-81
2023/07/25 04:12:22;;;;;;;11.70;6.07;;;;;;;13.86;100.00;99888.50;5014537;28;20057;-81
2023/07/25 04:14:54;;;;;;;11.23;5.97;;;;;;;13.84;100.00;99898.41;5012991;28;20104;-82
2023/07/25 04:18:03;;;;;;;12.43;6.25;;;;;;;13.81;100.00;99899.59;5006548;28;20057;-82
2023/07/25 05:07:57;;;;;;;10.18;5.97;;;;;;;15.66;100.00;99883.25;4991582;28;20054;-82
2023/07/25 05:10:24;;;;;;;9.10;5.93;;;;;;;15.74;100.00;99877.75;5002877;28;20042;-83
2023/07/25 05:12:50;;;;;;;10.70;6.60;;;;;;;15.88;100.00;99880.16;4989333;28;20047;-82
2023/07/25 05:15:17;;;;;;;12.73;6.38;;;;;;;16.12;98.74;99875.97;5017906;22;20127;-78
2023/07/25 05:17:44;;;;;;;12.82;6.53;;;;;;;16.15;97.64;99869.47;5013966;28;20504;-77
2023/07/25 05:20:12;;;;;;;13.40;6.57;;;;;;;16.64;96.71;99870.59;5013812;28;20077;-80
2023/07/25 05:22:39;;;;;;;10.00;6.40;;;;;;;16.86;95.26;99867.44;5015584;28;20085;-79
2023/07/25 05:25:06;;;;;;;11.95;6.72;;;;;;;16.81;94.33;99859.34;5020257;28;20057;-79
2023/07/25 05:27:32;;;;;;;12.68;6.50;;;;;;;16.65;94.35;99873.06;5013085;28;20137;-79
2023/07/25 05:29:59;;;;;;;11.02;6.43;;;;;;;16.88;94.80;99880.44;5010823;28;20490;-79
2023/07/25 05:32:26;;;;;;;10.05;6.68;;;;;;;16.56;94.49;99879.59;5003281;28;20133;-79
2023/07/25 05:34:52;;;;;;;14.55;7.30;;;;;;;16.14;95.87;99888.97;5001873;28;20136;-79
2023/07/25 05:37:21;;;;;;;12.85;7.45;;;;;;;15.54;97.38;99888.34;5004878;28;20140;-79
2023/07/25 05:39:51;;;;;;;12.02;7.30;;;;;;;15.53;99.75;99895.44;5004924;28;20117;-79
2023/07/25 05:42:17;;;;;;;16.50;7.75;;;;;;;15.55;100.00;99909.25;5000604;28;20157;-79
2023/07/25 05:44:44;;;;;;;14.02;7.30;;;;;;;15.60;100.00;99903.34;4999285;28;20046;-79
2023/07/25 05:47:10;;;;;;;14.60;8.18;;;;;;;15.51;100.00;99909.84;4998153;28;20247;-78
2023/07/25 05:49:37;;;;;;;12.73;7.30;;;;;;;15.57;100.00;99912.50;4997785;28;20043;-79
2023/07/25 05:52:04;;;;;;;14.00;7.75;;;;;;;15.71;100.00;99912.47;4994819;28;20450;-79
2023/07/25 05:54:32;;;;;;;13.18;7.65;;;;;;;15.92;100.00;99914.84;4994191;28;20106;-77
2023/07/25 05:57:00;;;;;;;11.80;7.63;;;;;;;16.01;99.45;99912.78;4998819;28;20069;-78
2023/07/25 05:59:27;;;;;;;10.75;7.57;;;;;;;16.22;98.43;99917.78;4992852;28;20058;-78
2023/07/25 06:01:54;;;;;;;16.17;6.88;;;;;;;16.27;97.91;99923.22;4992049;28;20109;-78
2023/07/25 06:04:20;;;;;;;14.80;6.78;;;;;;;16.43;97.21;99925.41;4998848;28;20131;-79
2023/07/25 06:06:47;;;;;;;11.98;7.10;;;;;;;16.70;96.29;99926.06;4992872;28;20187;-78
2023/07/25 06:09:13;;;;;;;13.82;6.95;;;;;;;17.16;94.43;99922.28;4996308;28;20050;-79
2023/07/25 06:11:41;;;;;;;11.85;6.40;;;;;;;17.23;92.38;99920.41;5000728;28;20081;-79
2023/07/25 06:14:08;;;;;;;13.52;8.93;;;;;;;17.07;92.00;99924.38;4999631;28;20085;-79
2023/07/25 06:16:35;;;;;;;16.20;7.82;;;;;;;17.16;92.37;99919.63;5002056;28;20133;-79
2023/07/25 06:19:02;;;;;;;17.30;6.15;;;;;;;17.30;91.09;99915.88;4989151;28;20137;-78
2023/07/25 06:21:29;;;;;;;10.98;6.10;;;;;;;17.37;90.52;99927.19;4996325;28;20070;-79
2023/07/25 06:23:55;;;;;;;13.93;6.18;;;;;;;17.41;90.38;99917.81;5000014;28;20456;-79
2023/07/25 06:26:22;;;;;;;10.50;5.80;;;;;;;17.63;89.63;99914.72;4999770;28;20748;-79
2023/07/25 06:28:51;;;;;;;9.27;5.68;;;;;;;17.66;87.87;99906.38;4993399;28;20078;-81
2023/07/25 06:31:17;;;;;;;12.30;5.28;;;;;;;17.13;87.88;99915.59;4998314;28;20050;-79
2023/07/25 06:33:44;;;;;;;12.27;5.60;;;;;;;16.60;88.83;99915.94;4999494;28;20390;-79
2023/07/25 06:36:10;;;;;;;15.32;5.85;;;;;;;16.63;90.03;99906.78;4999467;28;20085;-79
2023/07/25 06:38:37;;;;;;;9.73;5.53;;;;;;;16.80;90.79;99915.84;4998569;28;20077;-79
2023/07/25 06:41:04;;;;;;;12.65;5.22;;;;;;;16.98;88.87;99906.38;4994188;28;20490;-78
2023/07/25 06:43:30;;;;;;;9.90;5.70;;;;;;;17.27;88.98;99907.56;4997894;28;20105;-79
2023/07/25 06:45:58;;;;;;;12.90;5.95;;;;;;;17.50;89.05;99913.81;4999027;28;20121;-79
2023/07/25 06:48:25;;;;;;;14.55;6.05;;;;;;;17.63;89.08;99918.19;5001341;28;20054;-79
2023/07/25 06:50:52;;;;;;;12.02;6.50;;;;;;;17.53;88.06;99923.16;4999120;28;20475;-79
2023/07/25 06:53:18;;;;;;;13.93;6.35;;;;;;;17.60;87.51;99929.22;4998760;28;20138;-79
2023/07/25 06:55:45;;;;;;;11.95;6.47;;;;;;;18.01;85.83;99917.19;4998316;28;20172;-79
2023/07/25 06:58:12;;;;;;;15.02;5.82;;;;;;;18.13;85.51;99926.81;4998045;28;20512;-78
2023/07/25 07:00:39;;;;;;;13.65;6.18;;;;;;;18.46;85.61;99925.56;4995951;28;20427;-79
2023/07/25 07:03:07;;;;;;;13.48;6.53;;;;;;;18.44;84.77;99923.16;4992575;28;20078;-78
2023/07/25 07:05:34;;;;;;;11.70;6.50;;;;;;;18.28;85.17;99938.88;4996863;28;20541;-79
2023/07/25 07:08:01;;;;;;;12.55;5.60;;;;;;;18.43;84.53;99921.53;4998558;28;20125;-79
2023/07/25 07:10:28;;;;;;;10.90;5.70;;;;;;;18.30;83.91;99932.31;4997597;28;20130;-78
2023/07/25 07:12:55;;;;;;;9.88;5.30;;;;;;;18.26;84.00;99925.03;4997842;28;20425;-80
2023/07/25 07:15:25;;;;;;;13.68;5.18;;;;;;;18.45;82.35;99905.41;4997884;28;20057;-79
2023/07/25 07:17:52;;;;;;;5.82;4.93;;;;;;;18.24;82.08;99919.97;4998873;28;20117;-78
2023/07/25 07:20:20;;;;;;;11.30;5.28;;;;;;;18.15;82.37;99927.41;4998321;28;20046;-79
2023/07/25 07:22:47;;;;;;;7.97;4.00;;;;;;;17.93;79.77;99906.91;5000629;28;20122;-78
2023/07/25 07:25:13;;;;;;;9.70;3.90;;;;;;;17.84;78.78;99898.47;4999605;28;20118;-79
2023/07/25 07:27:40;;;;;;;18.75;4.70;;;;;;;17.73;78.57;99902.66;4999088;28;20467;-79
2023/07/25 07:30:08;;;;;;;12.93;4.28;;;;;;;17.74;79.29;99906.09;4998478;28;20046;-80
2023/07/25 07:32:36;;;;;;;10.68;3.72;;;;;;;17.17;78.18;99903.56;5002141;28;20064;-82
2023/07/25 07:35:03;;;;;;;11.30;4.10;;;;;;;16.88;80.02;99907.66;4999408;28;20074;-79
2023/07/25 07:37:31;;;;;;;10.00;4.18;;;;;;;17.30;81.28;99915.88;4994786;28;20070;-78
2023/07/25 07:39:57;;;;;;;16.05;6.30;;;;;;;17.42;83.68;99913.31;4997312;28;20078;-82
2023/07/25 07:42:24;;;;;;;18.85;6.72;;;;;;;17.58;84.89;99918.84;4996471;28;20085;-78
2023/07/25 07:44:51;;;;;;;16.00;7.03;;;;;;;17.57;85.17;99916.41;4997265;28;20153;-79
2023/07/25 07:47:17;;;;;;;14.50;6.97;;;;;;;17.68;84.28;99915.72;4997057;28;20135;-79
2023/07/25 07:49:44;;;;;;;14.48;6.00;;;;;;;17.86;84.91;99921.03;4995981;28;20495;-79
2023/07/25 07:52:10;;;;;;;8.88;6.82;;;;;;;17.89;83.51;99925.09;4995509;28;20085;-78
2023/07/25 07:54:38;;;;;;;13.57;6.80;;;;;;;17.86;82.81;99926.34;4994043;28;20138;-79
2023/07/25 07:57:05;;;;;;;10.32;6.10;;;;;;;18.42;82.81;99919.13;4986647;28;20152;-79
2023/07/25 07:59:32;;;;;;;12.25;6.93;;;;;;;18.56;80.76;99918.72;4991736;28;20137;-79
2023/07/25 08:01:58;;;;;;;14.48;7.38;;;;;;;18.54;79.76;99917.31;4990440;28;20125;-79
2023/07/25 08:04:25;;;;;;;12.88;7.93;;;;;;;18.62;79.71;99924.97;4990915;28;20043;-81
2023/07/25 08:06:51;;;;;;;12.75;7.63;;;;;;;18.44;80.15;99927.63;4989029;28;20046;-79
2023/07/25 08:09:18;;;;;;;11.98;6.97;;;;;;;18.31;79.83;99930.47;4987707;28;20470;-78
2023/07/25 08:11:46;;;;;;;10.25;6.75;;;;;;;18.29;80.68;99930.72;4988367;28;20098;-78
2023/07/25 08:14:13;;;;;;;15.65;9.23;;;;;;;18.19;80.17;99928.59;4987545;28;20074;-78
2023/07/25 08:16:39;;;;;;;14.75;9.77;;;;;;;17.70;80.57;99921.59;4993252;28;20114;-79
2023/07/25 08:19:09;;;;;;;16.13;9.55;;;;;;;17.64;81.43;99929.56;4995936;28;20125;-78
2023/07/25 08:21:36;;;;;;;16.40;10.35;;;;;;;17.81;81.90;99931.47;4997214;28;20129;-78
2023/07/25 08:24:02;;;;;;;12.10;9.45;;;;;;;17.44;81.00;99922.66;5000237;28;20193;-78
2023/07/25 08:26:29;;;;;;;18.83;11.02;;;;;;;17.39;81.61;99932.28;4996628;28;20129;-79
2023/07/25 08:28:57;;;;;;;15.60;10.02;;;;;;;17.32;81.74;99927.03;4998784;28;20046;-78
2023/07/25 08:31:23;;;;;;;20.92;14.98;;;;;;;17.39;80.93;99929.63;4998762;28;20221;-77
2023/07/25 08:33:50;;;;;;;16.90;14.70;;;;;;;17.44;81.77;99937.72;4997373;28;20568;-79
2023/07/25 08:36:17;;;;;;;21.73;16.60;;;;;;;17.43;80.76;99925.53;4997211;28;20072;-78
2023/07/25 08:38:43;;;;;;;20.48;15.63;;;;;;;17.72;80.92;99924.84;4996495;28;20077;-78
2023/07/25 08:41:13;;;;;;;17.52;15.05;;;;;;;18.07;80.86;99932.19;4999420;28;20129;-78
2023/07/25 08:43:41;;;;;;;22.23;14.05;;;;;;;18.37;80.08;99925.09;4999185;28;20122;-78
2023/07/25 08:46:11;;;;;;;20.77;13.38;;;;;;;18.53;78.40;99926.28;4999208;28;20113;-78
2023/07/25 08:48:39;;;;;;;22.55;16.23;;;;;;;18.49;78.10;99925.13;4999678;28;20054;-78
2023/07/25 08:51:08;;;;;;;18.27;15.57;;;;;;;18.83;76.37;99921.84;4992184;28;20129;-79
2023/07/25 08:53:42;;;;;;;18.98;14.98;;;;;;;19.33;75.28;99920.63;4993739;28;20050;-78
2023/07/25 08:56:08;;;;;;;22.42;16.23;;;;;;;19.89;73.51;99920.00;5000493;28;20058;-78
2023/07/25 08:58:36;;;;;;;22.85;15.52;;;;;;;20.08;72.35;99929.44;4999007;28;20051;-79
2023/07/25 09:01:02;;;;;;;18.73;14.93;;;;;;;20.30;69.38;99923.50;4995816;28;20046;-77
2023/07/25 09:03:32;;;;;;;21.48;11.80;;;;;;;20.32;69.00;99932.81;4998425;28;20050;-78
2023/07/25 09:06:00;;;;;;;14.80;10.52;;;;;;;20.06;69.39;99931.53;4996892;28;20050;-79
2023/07/25 09:08:27;;;;;;;22.00;12.05;;;;;;;19.20;71.41;99942.88;4994132;28;20061;-78
2023/07/25 09:10:54;;;;;;;18.85;11.85;;;;;;;18.93;73.08;99939.00;4990249;28;20133;-78
2023/07/25 09:13:21;;;;;;;18.05;10.98;;;;;;;18.87;72.59;99936.25;4999318;28;20133;-78
2023/07/25 09:15:47;;;;;;;16.02;10.13;;;;;;;19.03;73.00;99942.72;5001111;28;20968;-78
2023/07/25 09:18:14;;;;;;;15.60;10.88;;;;;;;18.77;73.42;99932.53;4999199;28;20047;-78
2023/07/25 09:20:42;;;;;;;13.30;9.55;;;;;;;18.38;73.00;99939.16;4998146;28;20421;-78
2023/07/25 09:23:09;;;;;;;13.90;9.73;;;;;;;18.62;72.40;99940.88;4999380;28;20489;-78
2023/07/25 09:25:36;;;;;;;19.67;9.85;;;;;;;18.68;73.25;99939.97;4997670;28;20133;-79
2023/07/25 09:28:02;;;;;;;15.40;9.00;;;;;;;18.79;73.34;99941.88;4998131;28;20085;-79
2023/07/25 09:30:29;;;;;;;13.00;8.40;;;;;;;18.14;73.04;99941.69;4996752;28;20125;-78
2023/07/25 09:32:56;;;;;;;13.10;9.02;;;;;;;17.92;74.22;99935.22;4996203;28;20109;-78
2023/07/25 09:35:23;;;;;;;15.77;7.80;;;;;;;17.70;74.64;99947.25;4996559;28;20128;-78
2023/07/25 09:37:55;;;;;;;12.45;6.93;;;;;;;17.67;74.42;99950.34;4996336;28;20066;-78
2023/07/25 09:40:22;;;;;;;15.88;8.05;;;;;;;17.16;74.82;99932.84;4997500;28;20050;-78
2023/07/25 09:42:51;;;;;;;14.30;7.80;;;;;;;17.30;75.90;99958.19;4997410;28;20057;-78
2023/07/25 09:45:18;;;;;;;14.88;8.85;;;;;;;17.16;76.52;99952.16;4994413;28;20599;-78
2023/07/25 09:47:45;;;;;;;18.00;8.38;;;;;;;17.35;77.15;99957.53;4994753;28;20057;-77
2023/07/25 09:50:11;;;;;;;10.65;7.88;;;;;;;17.45;76.59;99944.63;4994743;28;20394;-79
2023/07/25 09:52:39;;;;;;;13.55;7.75;;;;;;;17.59;75.88;99946.09;4995055;28;20612;-77
2023/07/25 09:55:09;;;;;;;13.52;8.15;;;;;;;17.90;76.13;99945.22;4994470;28;20520;-78
2023/07/25 09:57:35;;;;;;;14.80;7.63;;;;;;;18.17;74.45;99937.78;4992211;28;20054;-77
2023/07/25 10:00:04;;;;;;;12.25;6.93;;;;;;;18.20;73.37;99937.34;4995712;28;20050;-78
2023/07/25 10:02:32;;;;;;;9.95;7.25;;;;;;;17.90;73.46;99932.81;4993866;28;20049;-77
2023/07/25 10:04:59;;;;;;;11.90;7.28;;;;;;;17.87;74.50;99937.72;4995943;28;20560;-78
2023/07/25 10:07:26;;;;;;;14.38;7.10;;;;;;;17.75;74.29;99942.13;4995277;28;20129;-78
2023/07/25 10:09:53;;;;;;;13.02;7.20;;;;;;;17.76;74.94;99951.69;4989675;28;20097;-77
2023/07/25 10:12:21;;;;;;;11.02;6.82;;;;;;;17.58;75.04;99947.94;4994696;28;20046;-78
2023/07/25 10:14:48;;;;;;;11.80;6.97;;;;;;;17.40;75.60;99947.13;4998584;28;20104;-78
2023/07/25 10:17:15;;;;;;;13.30;7.32;;;;;;;17.38;76.24;99952.63;4997232;28;20138;-81
2023/07/25 10:19:49;;;;;;;16.13;6.95;;;;;;;17.52;75.29;99951.44;4999792;28;20133;-80
2023/07/25 10:22:17;;;;;;;12.10;6.35;;;;;;;17.67;75.07;99945.03;4999155;28;20478;-79
2023/07/25 10:24:44;;;;;;;12.45;6.53;;;;;;;17.90;74.85;99939.94;4998667;28;20052;-80
2023/07/25 10:27:13;;;;;;;10.63;6.38;;;;;;;18.24;74.90;99943.81;4998211;28;20070;-80
2023/07/25 10:29:42;;;;;;;8.75;5.57;;;;;;;18.43;72.93;99918.88;4995750;28;20437;-80
2023/07/25 10:32:12;;;;;;;13.10;6.05;;;;;;;18.66;71.69;99926.16;4996166;28;20073;-80
2023/07/25 10:34:47;;;;;;;9.80;4.78;;;;;;;19.34;71.54;99930.22;4996799;28;20137;-79
2023/07/25 10:37:27;;;;;;;7.75;5.28;;;;;;;20.47;68.53;99935.00;4996509;28;20110;-80
2023/07/25 10:40:11;;;;;;;7.57;3.75;;;;;;;21.36;64.50;99920.03;4993734;28;20104;-80
2023/07/25 10:42:59;;;;;;;6.38;4.13;;;;;;;20.38;63.30;99913.31;4999976;28;20440;-81
2023/07/25 10:45:50;;;;;;;5.65;3.53;;;;;;;20.49;64.44;99935.56;4971024;28;20125;-79
2023/07/25 10:48:34;;;;;;;8.18;3.78;;;;;;;20.14;63.97;99925.84;4995001;28;20090;-83
2023/07/25 10:51:02;;;;;;;8.70;3.30;;;;;;;20.37;61.97;99906.34;4999981;28;20053;-80
2023/07/25 10:53:29;;;;;;;9.13;3.28;;;;;;;20.74;61.73;99921.94;4998399;28;20129;-80
2023/07/25 10:56:15;;;;;;;7.43;3.50;;;;;;;20.91;61.24;99916.63;4997303;28;20133;-78
2023/07/25 10:59:02;;;;;;;7.15;3.20;;;;;;;20.33;59.81;99907.06;4996777;28;20563;-80
2023/07/25 11:01:36;;;;;;;6.50;3.47;;;;;;;20.55;59.87;99916.03;4992774;28;20077;-79
2023/07/25 11:04:26;;;;;;;6.78;3.40;;;;;;;20.93;60.23;99931.28;4997072;28;20543;-80
2023/07/25 11:06:53;;;;;;;6.07;3.35;;;;;;;20.46;60.10;99912.94;5000807;28;20080;-81
2023/07/25 11:09:21;;;;;;;9.77;3.45;;;;;;;21.07;60.21;99924.63;5003089;28;20077;-79
2023/07/25 11:11:49;;;;;;;7.13;3.42;;;;;;;20.37;59.94;99913.50;4995836;28;20046;-78
2023/07/25 11:14:17;;;;;;;7.57;3.45;;;;;;;20.54;60.08;99923.19;4997021;28;20129;-80
2023/07/25 11:16:48;;;;;;;6.60;3.05;;;;;;;21.22;57.41;99915.31;5024639;23;20046;-83
2023/07/25 11:19:15;;;;;;;7.38;2.92;;;;;;;21.85;56.49;99893.53;5014315;28;20140;-82
2023/07/25 11:21:43;;;;;;;7.93;3.10;;;;;;;21.88;55.98;99882.38;5014453;28;20137;-82
2023/07/25 11:24:09;;;;;;;6.85;3.25;;;;;;;21.27;58.81;99910.06;5012325;28;20042;-83
2023/07/25 11:26:37;;;;;;;5.93;2.70;;;;;;;20.78;58.85;99896.50;5015011;28;20060;-81
2023/07/25 11:29:05;;;;;;;7.30;3.42;;;;;;;20.65;59.93;99924.19;5010080;28;20050;-83
2023/07/25 11:31:32;;;;;;;8.32;3.15;;;;;;;21.37;59.59;99913.66;5010988;28;20073;-79
2023/07/25 11:34:09;;;;;;;5.22;3.00;;;;;;;22.11;56.27;99890.16;5014168;28;20144;-79
2023/07/25 11:36:37;;;;;;;6.85;3.03;;;;;;;22.75;57.32;99906.22;5016578;28;20049;-79
2023/07/25 11:39:04;;;;;;;5.28;3.35;;;;;;;22.54;55.67;99899.13;5016343;28;20049;-77
2023/07/25 11:41:31;;;;;;;6.85;3.60;;;;;;;22.17;56.63;99907.00;5015568;28;20471;-80
2023/07/25 11:43:59;;;;;;;6.80;3.90;;;;;;;22.27;57.45;99903.63;5000551;28;20068;-80
2023/07/25 11:46:26;;;;;;;5.85;3.70;;;;;;;22.01;58.63;99908.69;5013990;28;20117;-82
2023/07/25 11:48:54;;;;;;;7.93;4.13;;;;;;;21.28;60.82;99925.75;4995523;28;20588;-84
2023/07/25 11:51:22;;;;;;;6.07;3.05;;;;;;;20.82;60.30;99927.66;5010059;28;20140;-82
2023/07/25 11:53:48;;;;;;;7.97;3.50;;;;;;;20.50;61.69;99930.00;5014807;28;20141;-82
2023/07/25 11:56:15;;;;;;;8.50;3.55;;;;;;;20.20;63.04;99926.75;5003884;28;20137;-80
2023/07/25 11:58:48;;;;;;;6.22;3.42;;;;;;;20.19;62.60;99920.63;5006310;28;20121;-82
2023/07/25 12:01:16;;;;;;;;;;;;;;;20.07;64.64;99933.13;5009941;28;20058;-81
2023/07/25 12:03:47;;;;;;;14.85;4.78;;;;;;;19.63;65.53;99942.56;5013290;28;19922;-83
2023/07/25 12:06:13;;;;;;;8.15;3.45;;;;;;;19.72;65.93;99945.69;5009293;28;20057;-81
2023/07/25 12:08:45;;;;;;;8.60;3.80;;;;;;;19.49;66.22;99939.28;4990330;28;20054;-82
2023/07/25 12:11:13;;;;;;;7.88;3.65;;;;;;;19.75;66.18;99946.03;4990490;28;20464;-84
2023/07/25 12:13:44;;;;;;;7.63;3.63;;;;;;;20.23;66.38;99939.56;4986010;28;20093;-81
2023/07/25 12:16:24;;;;;;;6.85;3.45;;;;;;;20.54;64.14;99935.66;4988601;28;20125;-81
2023/07/25 12:18:52;;;;;;;7.45;3.47;;;;;;;20.44;63.61;99927.50;4994240;28;20082;-80
2023/07/25 12:21:24;;;;;;;8.57;3.97;;;;;;;20.63;63.90;99941.41;4994654;28;20056;-80
2023/07/25 12:23:52;;;;;;;6.65;3.47;;;;;;;20.72;61.05;99930.16;4994127;28;20232;-82
2023/07/25 12:26:21;;;;;;;5.47;3.53;;;;;;;20.95;61.01;99941.69;4993697;28;20137;-81
2023/07/25 12:28:48;;;;;;;7.65;3.17;;;;;;;20.76;60.65;99936.63;4989705;28;20050;-80
2023/07/25 12:31:15;;;;;;;7.20;3.20;;;;;;;20.51;63.23;99958.22;4995499;28;20141;-82
2023/07/25 12:33:43;;;;;;;8.68;3.70;;;;;;;20.42;64.12;99967.59;4995066;28;20439;-81
2023/07/25 12:36:11;;;;;;;5.05;3.15;;;;;;;20.14;65.30;99981.63;4994798;28;20096;-79
2023/07/25 12:38:37;;;;;;;6.88;3.63;;;;;;;19.70;66.07;99971.66;4987531;28;20133;-79
2023/07/25 12:41:05;;;;;;;7.22;3.28;;;;;;;19.50;66.29;99970.09;4994321;28;20050;-80
2023/07/25 12:43:32;;;;;;;6.90;3.60;;;;;;;19.44;67.94;99981.63;4995329;28;20480;-79
2023/07/25 12:45:59;;;;;;;8.32;3.70;;;;;;;19.37;68.24;99988.91;4995449;28;20052;-83
2023/07/25 12:48:26;;;;;;;7.90;3.60;;;;;;;19.17;68.87;99989.22;4990804;28;20141;-80
2023/07/25 12:50:53;;;;;;;6.80;3.20;;;;;;;19.15;68.10;99987.81;4996078;28;20457;-80